createdAt,value
2022-10-19T00:01:17.151Z,994.9
2022-10-19T00:03:20.670Z,995
2022-10-19T00:05:19.714Z,995
2022-10-19T00:07:21.238Z,994.9
2022-10-19T00:09:22.972Z,994.9
2022-10-19T00:11:23.873Z,995
2022-10-19T00:15:26.132Z,995
2022-10-19T00:17:27.224Z,994.9
2022-10-19T00:19:29.021Z,995
2022-10-19T00:21:30.119Z,994.9
2022-10-19T00:23:31.322Z,994.8
2022-10-19T00:25:32.499Z,994.8
2022-10-19T00:27:34.081Z,994.9
2022-10-19T00:29:35.947Z,994.9
2022-10-19T00:31:37.121Z,994.8
2022-10-19T00:33:38.867Z,994.8
2022-10-19T00:35:40.763Z,994.8
2022-10-19T00:37:41.705Z,994.7
2022-10-19T00:39:42.837Z,994.8
2022-10-19T00:41:43.980Z,994.8
2022-10-19T00:43:45.357Z,994.8
2022-10-19T00:45:46.392Z,994.7
2022-10-19T00:47:47.872Z,994.8
2022-10-19T00:49:49.537Z,994.8
2022-10-19T00:51:51.368Z,994.7
2022-10-19T00:53:52.941Z,994.6
2022-10-19T00:55:54.391Z,994.6
2022-10-19T00:57:55.504Z,994.6
2022-10-19T00:59:56.925Z,994.6
2022-10-19T01:01:58.321Z,994.6
2022-10-19T01:03:59.370Z,994.5
2022-10-19T01:06:00.325Z,994.6
2022-10-19T01:08:01.453Z,994.5
2022-10-19T01:10:02.600Z,994.6
2022-10-19T01:12:04.359Z,994.6
2022-10-19T01:14:05.253Z,994.6
2022-10-19T01:16:06.729Z,994.7
2022-10-19T01:18:08.623Z,994.6
2022-10-19T01:20:09.528Z,994.6
2022-10-19T01:24:11.883Z,994.7
2022-10-19T01:26:13.158Z,994.7
2022-10-19T01:28:14.226Z,994.8
2022-10-19T01:30:15.606Z,994.7
2022-10-19T01:34:17.716Z,994.7
2022-10-19T01:36:19.578Z,994.7
2022-10-19T01:40:22.213Z,994.7
2022-10-19T01:42:23.879Z,994.6
2022-10-19T01:44:24.858Z,994.6
2022-10-19T01:46:26.571Z,994.5
2022-10-19T01:48:27.479Z,994.5
2022-10-19T01:50:28.750Z,994.5
2022-10-19T01:52:30.475Z,994.4
2022-10-19T01:54:31.502Z,994.4
2022-10-19T01:56:33.022Z,994.3
2022-10-19T01:58:34.752Z,994.2
2022-10-19T02:00:36.067Z,994.3
2022-10-19T02:02:37.757Z,994.2
2022-10-19T02:04:39.033Z,994.2
2022-10-19T02:06:40.117Z,994.2
2022-10-19T02:08:41.353Z,994.2
2022-10-19T02:10:42.665Z,994.2
2022-10-19T02:12:44.221Z,994.2
2022-10-19T02:14:45.806Z,994.2
2022-10-19T02:16:47.075Z,994.2
2022-10-19T02:18:48.405Z,994.1
2022-10-19T02:20:49.617Z,994.1
2022-10-19T02:22:51.291Z,994.1
2022-10-19T02:24:52.324Z,994.1
2022-10-19T02:26:53.835Z,994.1
2022-10-19T02:28:55.364Z,994.1
2022-10-19T02:30:57.084Z,994
2022-10-19T02:32:58.122Z,994.1
2022-10-19T02:34:59.806Z,994
2022-10-19T02:37:01.063Z,994.1
2022-10-19T02:39:02.813Z,994.1
2022-10-19T02:41:04.606Z,994
2022-10-19T02:43:06.401Z,994.1
2022-10-19T02:45:07.611Z,994
2022-10-19T02:47:09.497Z,994.1
2022-10-19T02:49:10.934Z,994.1
2022-10-19T02:51:12.313Z,994.2
2022-10-19T02:53:13.340Z,994.1
2022-10-19T02:55:14.824Z,994
2022-10-19T02:57:15.732Z,994
2022-10-19T02:59:16.806Z,994.1
2022-10-19T03:01:17.921Z,994
2022-10-19T03:03:19.215Z,994
2022-10-19T03:05:20.365Z,994
2022-10-19T03:07:21.593Z,994
2022-10-19T03:11:24.342Z,994.1
2022-10-19T03:13:25.452Z,994.1
2022-10-19T03:15:27.057Z,994.1
2022-10-19T03:17:28.702Z,994
2022-10-19T03:19:29.760Z,994.1
2022-10-19T03:21:31.048Z,994
2022-10-19T03:23:32.476Z,994
2022-10-19T03:25:33.899Z,994
2022-10-19T03:27:35.613Z,994
2022-10-19T03:29:36.509Z,994
2022-10-19T03:31:37.743Z,994.1
2022-10-19T03:33:39.148Z,994
2022-10-19T03:35:40.441Z,994
2022-10-19T03:37:42.039Z,994.1
2022-10-19T03:39:43.657Z,994.1
2022-10-19T03:41:45.066Z,994
2022-10-19T03:43:46.648Z,994.1
2022-10-19T03:45:47.562Z,994.1
2022-10-19T03:47:49.230Z,994.1
2022-10-19T03:49:50.563Z,994.1
2022-10-19T03:51:51.701Z,994.1
2022-10-19T03:53:52.770Z,994
2022-10-19T03:55:54.201Z,994.1
2022-10-19T03:57:55.955Z,994.1
2022-10-19T03:59:57.369Z,994.1
2022-10-19T04:01:59.000Z,994.1
2022-10-19T04:04:00.516Z,994.1
2022-10-19T04:06:02.017Z,994.1
2022-10-19T04:08:03.353Z,994.1
2022-10-19T04:10:05.018Z,994
2022-10-19T04:12:05.949Z,994
2022-10-19T04:14:07.234Z,994
2022-10-19T04:16:08.919Z,994
2022-10-19T04:18:10.324Z,994
2022-10-19T04:20:11.324Z,994.1
2022-10-19T04:20:55.141Z,994.2
2022-10-19T04:22:56.985Z,994.1
2022-10-19T04:24:58.687Z,994.1
2022-10-19T04:27:00.083Z,994
2022-10-19T04:31:02.739Z,994.1
2022-10-19T04:33:03.839Z,994.1
2022-10-19T04:35:05.491Z,994.1
2022-10-19T04:37:06.957Z,994
2022-10-19T04:39:08.804Z,994
2022-10-19T04:41:09.817Z,994
2022-10-19T04:43:11.289Z,994.1
2022-10-19T04:45:12.622Z,994
2022-10-19T04:47:13.948Z,994.1
2022-10-19T04:49:16.569Z,994
2022-10-19T04:51:16.672Z,994
2022-10-19T04:53:18.154Z,994
2022-10-19T04:55:19.019Z,994
2022-10-19T04:57:20.525Z,994
2022-10-19T04:59:21.813Z,993.9
2022-10-19T05:01:23.174Z,993.9
2022-10-19T05:03:24.270Z,993.9
2022-10-19T05:05:25.635Z,993.9
2022-10-19T05:07:26.582Z,993.9
2022-10-19T05:09:28.062Z,993.9
2022-10-19T05:11:29.303Z,993.9
2022-10-19T05:13:30.555Z,993.8
2022-10-19T05:15:32.158Z,994
2022-10-19T05:17:33.565Z,993.9
2022-10-19T05:19:35.103Z,993.9
2022-10-19T05:21:36.549Z,993.9
2022-10-19T05:23:37.839Z,994
2022-10-19T05:25:39.428Z,994.1
2022-10-19T05:27:40.418Z,994.1
2022-10-19T05:29:42.160Z,994.2
2022-10-19T05:31:43.306Z,994.1
2022-10-19T05:33:44.705Z,994.1
2022-10-19T05:35:45.855Z,994.1
2022-10-19T05:37:47.633Z,994.1
2022-10-19T05:39:48.765Z,994.1
2022-10-19T05:41:50.504Z,994.1
2022-10-19T05:43:52.405Z,994.2
2022-10-19T05:45:54.097Z,994.1
2022-10-19T05:47:55.133Z,994.1
2022-10-19T05:49:56.323Z,994
2022-10-19T05:51:58.190Z,994
2022-10-19T05:56:01.763Z,994.1
2022-10-19T05:58:02.854Z,994.1
2022-10-19T06:00:04.533Z,994
2022-10-19T06:02:05.980Z,994
2022-10-19T06:06:08.393Z,994
2022-10-19T06:08:09.370Z,994
2022-10-19T06:10:10.310Z,994
2022-10-19T06:12:12.134Z,994
2022-10-19T06:14:13.113Z,994.1
2022-10-19T06:16:14.556Z,994.1
2022-10-19T06:18:15.657Z,994.1
2022-10-19T06:20:16.988Z,994
2022-10-19T06:22:18.437Z,994
2022-10-19T06:24:19.343Z,993.9
2022-10-19T06:26:21.160Z,994
2022-10-19T06:28:22.160Z,994.1
2022-10-19T06:30:23.660Z,994
2022-10-19T06:32:25.390Z,994
2022-10-19T06:34:26.565Z,994
2022-10-19T06:36:28.061Z,993.9
2022-10-19T06:38:29.023Z,994
2022-10-19T06:40:30.143Z,993.9
2022-10-19T06:42:31.789Z,994
2022-10-19T06:44:33.351Z,994.1
2022-10-19T06:46:34.305Z,994
2022-10-19T06:48:35.882Z,994.2
2022-10-19T06:50:37.349Z,994.2
2022-10-19T06:52:38.243Z,994.2
2022-10-19T06:54:40.148Z,994.2
2022-10-19T06:56:41.674Z,994.3
2022-10-19T06:58:43.040Z,994.3
2022-10-19T07:00:44.154Z,994.3
2022-10-19T07:02:45.085Z,994.4
2022-10-19T07:04:46.862Z,994.4
2022-10-19T07:06:48.109Z,994.5
2022-10-19T07:10:51.155Z,994.4
2022-10-19T07:12:52.576Z,994.3
2022-10-19T07:14:54.272Z,994.4
2022-10-19T07:16:56.055Z,994.3
2022-10-19T07:18:57.240Z,994.3
2022-10-19T07:20:59.023Z,994.3
2022-10-19T07:23:00.090Z,994.2
2022-10-19T07:25:01.415Z,994.3
2022-10-19T07:27:02.546Z,994.4
2022-10-19T07:29:03.718Z,994.4
2022-10-19T07:31:05.005Z,994.3
2022-10-19T07:33:06.682Z,994.2
2022-10-19T07:35:08.389Z,994.3
2022-10-19T07:37:10.042Z,994.3
2022-10-19T07:39:10.974Z,994.2
2022-10-19T07:41:12.384Z,994.3
2022-10-19T07:43:13.659Z,994.2
2022-10-19T07:45:14.741Z,994.2
2022-10-19T07:47:16.114Z,994.4
2022-10-19T07:49:17.107Z,994.3
2022-10-19T07:51:18.772Z,994.3
2022-10-19T07:53:20.387Z,994.3
2022-10-19T07:57:23.482Z,994.3
2022-10-19T07:59:25.140Z,994.3
2022-10-19T08:01:26.679Z,994.3
2022-10-19T08:04:43.104Z,994.3
2022-10-19T08:05:29.539Z,994.4
2022-10-19T08:07:30.950Z,994.4
2022-10-19T08:09:51.850Z,994.4
2022-10-19T08:11:33.946Z,994.4
2022-10-19T08:13:35.823Z,994.4
2022-10-19T08:15:37.574Z,994.4
2022-10-19T08:19:40.546Z,994.4
2022-10-19T08:21:41.680Z,994.4
2022-10-19T08:23:43.359Z,994.4
2022-10-19T08:25:44.432Z,994.4
2022-10-19T08:27:45.570Z,994.5
2022-10-19T08:29:47.180Z,994.5
2022-10-19T08:31:48.061Z,994.5
2022-10-19T08:33:49.011Z,994.4
2022-10-19T08:35:50.373Z,994.5
2022-10-19T08:37:52.524Z,994.6
2022-10-19T08:39:53.711Z,994.4
2022-10-19T08:41:55.216Z,994.5
2022-10-19T08:43:56.807Z,994.5
2022-10-19T08:45:57.820Z,994.5
2022-10-19T08:50:00.659Z,994.4
2022-10-19T08:52:02.097Z,994.4
2022-10-19T08:54:03.597Z,994.5
2022-10-19T08:56:04.976Z,994.4
2022-10-19T08:58:06.164Z,994.4
2022-10-19T09:00:07.927Z,994.4
2022-10-19T09:02:08.833Z,994.4
2022-10-19T09:04:09.953Z,994.4
2022-10-19T09:06:11.734Z,994.4
2022-10-19T09:08:16.782Z,994.4
2022-10-19T09:10:14.769Z,994.4
2022-10-19T09:12:15.692Z,994.4
2022-10-19T09:14:17.401Z,994.4
2022-10-19T09:18:19.980Z,994.5
2022-10-19T09:20:21.146Z,994.5
2022-10-19T09:22:22.902Z,994.4
2022-10-19T09:24:24.640Z,994.4
2022-10-19T09:26:26.105Z,994.5
2022-10-19T09:28:29.294Z,994.5
2022-10-19T09:30:28.486Z,994.4
2022-10-19T09:32:30.093Z,994.5
2022-10-19T09:34:31.178Z,994.5
2022-10-19T09:36:46.240Z,994.4
2022-10-19T09:38:34.494Z,994.4
2022-10-19T09:40:35.568Z,994.5
2022-10-19T09:42:37.000Z,994.3
2022-10-19T09:44:38.059Z,994.3
2022-10-19T09:46:39.832Z,994.4
2022-10-19T09:48:41.429Z,994.4
2022-10-19T09:50:42.391Z,994.4
2022-10-19T09:52:44.115Z,994.4
2022-10-19T09:54:45.322Z,994.4
2022-10-19T09:56:46.382Z,994.5
2022-10-19T09:58:47.800Z,994.4
2022-10-19T10:00:49.588Z,994.4
2022-10-19T10:02:50.945Z,994.4
2022-10-19T10:04:52.093Z,994.3
2022-10-19T10:06:53.511Z,994.3
2022-10-19T10:08:54.558Z,994.3
2022-10-19T10:10:56.274Z,994.3
2022-10-19T10:12:58.057Z,994.3
2022-10-19T10:17:00.748Z,994.3
2022-10-19T10:19:02.150Z,994.3
2022-10-19T10:21:03.945Z,994.3
2022-10-19T10:23:04.783Z,994.3
2022-10-19T10:25:06.008Z,994.3
2022-10-19T10:27:07.019Z,994.3
2022-10-19T10:29:08.259Z,994.2
2022-10-19T10:31:09.784Z,994.2
2022-10-19T10:33:15.793Z,994.2
2022-10-19T10:35:11.755Z,994.2
2022-10-19T10:37:13.154Z,994.2
2022-10-19T10:39:14.396Z,994.2
2022-10-19T10:43:17.853Z,994.1
2022-10-19T10:45:19.400Z,994.1
2022-10-19T10:47:21.190Z,994.1
2022-10-19T10:49:22.905Z,994.1
2022-10-19T10:53:25.116Z,994.2
2022-10-19T10:55:26.677Z,994
2022-10-19T10:57:27.953Z,993.9
2022-10-19T10:59:29.313Z,994
2022-10-19T11:01:30.302Z,994
2022-10-19T11:03:31.652Z,993.8
2022-10-19T11:05:33.070Z,993.9
2022-10-19T11:06:16.883Z,993.9
2022-10-19T11:08:18.315Z,993.9
2022-10-19T11:10:20.124Z,993.9
2022-10-19T11:12:21.373Z,993.8
2022-10-19T11:14:22.309Z,993.8
2022-10-19T11:16:23.353Z,993.8
2022-10-19T11:18:24.322Z,993.8
2022-10-19T11:20:26.098Z,993.8
2022-10-19T11:22:27.397Z,993.8
2022-10-19T11:26:30.387Z,993.6
2022-10-19T11:28:31.516Z,993.7
2022-10-19T11:30:33.034Z,993.7
2022-10-19T11:32:35.110Z,993.6
2022-10-19T11:34:36.222Z,993.6
2022-10-19T11:36:37.410Z,993.6
2022-10-19T11:38:39.200Z,993.6
2022-10-19T11:40:49.727Z,993.6
2022-10-19T11:42:42.020Z,993.6
2022-10-19T11:44:42.768Z,993.5
2022-10-19T11:46:43.912Z,993.5
2022-10-19T11:48:45.141Z,993.5
2022-10-19T11:52:48.541Z,993.4
2022-10-19T11:54:50.426Z,993.4
2022-10-19T11:57:02.809Z,993.4
2022-10-19T11:58:52.489Z,993.4
2022-10-19T12:00:53.922Z,993.2
2022-10-19T12:02:55.559Z,993.3
2022-10-19T12:04:57.221Z,993.2
2022-10-19T12:06:58.346Z,993.2
2022-10-19T12:08:59.917Z,993.2
2022-10-19T12:11:00.914Z,993.2
2022-10-19T12:13:02.301Z,993.1
2022-10-19T12:15:03.590Z,993.1
2022-10-19T12:17:05.746Z,993.1
2022-10-19T12:19:06.254Z,993.1
2022-10-19T12:21:07.172Z,993.1
2022-10-19T12:23:08.571Z,993.1
2022-10-19T12:25:10.085Z,993
2022-10-19T12:27:11.577Z,993
2022-10-19T12:29:12.718Z,993
2022-10-19T12:31:14.027Z,993
2022-10-19T12:33:15.785Z,993
2022-10-19T12:35:17.187Z,992.9
2022-10-19T12:37:18.637Z,993
2022-10-19T12:39:19.722Z,992.9
2022-10-19T12:41:21.454Z,992.9
2022-10-19T12:43:22.739Z,992.9
2022-10-19T12:45:23.901Z,992.9
2022-10-19T12:47:24.795Z,992.9
2022-10-19T12:49:26.375Z,992.9
2022-10-19T12:51:27.786Z,992.9
2022-10-19T12:53:28.671Z,992.9
2022-10-19T12:55:29.799Z,992.9
2022-10-19T12:57:31.368Z,992.8
2022-10-19T12:59:32.458Z,992.8
2022-10-19T13:01:33.961Z,992.8
2022-10-19T13:03:35.130Z,992.8
2022-10-19T13:05:36.434Z,992.7
2022-10-19T13:07:37.813Z,992.7
2022-10-19T13:11:41.223Z,992.7
2022-10-19T13:13:42.794Z,992.7
2022-10-19T13:15:43.763Z,992.6
2022-10-19T13:17:45.308Z,992.6
2022-10-19T13:19:46.765Z,992.5
2022-10-19T13:21:48.356Z,992.5
2022-10-19T13:23:49.581Z,992.5
2022-10-19T13:25:51.384Z,992.5
2022-10-19T13:27:52.522Z,992.5
2022-10-19T13:29:53.646Z,992.4
2022-10-19T13:31:54.943Z,992.5
2022-10-19T13:33:56.229Z,992.5
2022-10-19T13:35:57.653Z,992.5
2022-10-19T13:37:58.702Z,992.5
2022-10-19T13:40:00.223Z,992.5
2022-10-19T13:42:01.953Z,992.5
2022-10-19T13:44:03.796Z,992.5
2022-10-19T13:46:05.128Z,992.6
2022-10-19T13:48:06.982Z,992.5
2022-10-19T13:50:08.047Z,992.4
2022-10-19T13:52:09.617Z,992.4
2022-10-19T13:54:10.624Z,992.4
2022-10-19T13:56:11.643Z,992.4
2022-10-19T13:58:13.419Z,992.4
2022-10-19T14:00:14.537Z,992.4
2022-10-19T14:02:16.261Z,992.2
2022-10-19T14:04:17.145Z,992.2
2022-10-19T14:06:18.250Z,992.3
2022-10-19T14:08:19.696Z,992.2
2022-10-19T14:10:22.790Z,992.3
2022-10-19T14:12:23.212Z,992.2
2022-10-19T14:16:26.391Z,992.2
2022-10-19T14:18:28.341Z,992.1
2022-10-19T14:20:30.120Z,992.1
2022-10-19T14:22:31.851Z,992
2022-10-19T14:24:32.972Z,992
2022-10-19T14:26:33.986Z,992
2022-10-19T14:28:35.730Z,992
2022-10-19T14:30:36.733Z,992
2022-10-19T14:32:37.798Z,992
2022-10-19T14:34:39.143Z,991.9
2022-10-19T14:36:40.912Z,991.9
2022-10-19T14:38:41.906Z,991.8
2022-10-19T14:42:44.481Z,991.7
2022-10-19T14:44:46.017Z,991.7
2022-10-19T14:46:47.347Z,991.6
2022-10-19T14:48:48.580Z,991.7
2022-10-19T14:52:51.451Z,991.8
2022-10-19T14:54:52.542Z,991.7
2022-10-19T14:56:53.911Z,991.8
2022-10-19T14:58:54.974Z,991.7
2022-10-19T15:00:56.029Z,991.7
2022-10-19T15:02:57.711Z,991.8
2022-10-19T15:04:58.939Z,991.7
2022-10-19T15:07:00.254Z,991.7
2022-10-19T15:09:01.582Z,991.7
2022-10-19T15:11:02.644Z,991.7
2022-10-19T15:13:03.768Z,991.6
2022-10-19T15:15:05.350Z,991.7
2022-10-19T15:17:06.651Z,991.6
2022-10-19T15:19:07.920Z,991.7
2022-10-19T15:21:12.426Z,991.7
2022-10-19T15:23:10.433Z,991.6
2022-10-19T15:25:11.398Z,991.7
2022-10-19T15:27:12.751Z,991.7
2022-10-19T15:29:14.330Z,991.8
2022-10-19T15:31:16.143Z,991.7
2022-10-19T15:33:17.423Z,991.7
2022-10-19T15:35:19.262Z,991.7
2022-10-19T15:37:21.114Z,991.7
2022-10-19T15:41:23.639Z,991.6
2022-10-19T15:43:25.244Z,991.6
2022-10-19T15:45:26.952Z,991.6
2022-10-19T15:47:28.463Z,991.6
2022-10-19T15:49:30.009Z,991.6
2022-10-19T15:51:31.146Z,991.6
2022-10-19T15:53:32.121Z,991.5
2022-10-19T15:55:33.670Z,991.6
2022-10-19T15:57:34.849Z,991.6
2022-10-19T15:59:35.659Z,991.6
2022-10-19T16:01:37.227Z,991.6
2022-10-19T16:03:38.327Z,991.5
2022-10-19T16:05:39.518Z,991.4
2022-10-19T16:07:40.945Z,991.5
2022-10-19T16:09:42.789Z,991.4
2022-10-19T16:11:44.301Z,991.5
2022-10-19T16:13:45.707Z,991.6
2022-10-19T16:15:47.479Z,991.5
2022-10-19T16:17:48.674Z,991.5
2022-10-19T16:19:49.947Z,991.4
2022-10-19T16:21:51.281Z,991.4
2022-10-19T16:23:52.327Z,991.4
2022-10-19T16:25:54.080Z,991.4
2022-10-19T16:27:55.056Z,991.3
2022-10-19T16:29:56.950Z,991.3
2022-10-19T16:31:58.762Z,991.3
2022-10-19T16:34:00.216Z,991.2
2022-10-19T16:36:01.205Z,991.2
2022-10-19T16:40:04.195Z,991.3
2022-10-19T16:42:05.042Z,991.3
2022-10-19T16:44:06.463Z,991.3
2022-10-19T16:46:07.481Z,991.2
2022-10-19T16:48:08.548Z,991.2
2022-10-19T16:50:09.829Z,991.2
2022-10-19T16:52:10.737Z,991.2
2022-10-19T16:54:12.650Z,991.3
2022-10-19T16:56:14.524Z,991.3
2022-10-19T16:58:15.892Z,991.3
2022-10-19T17:00:16.908Z,991.3
2022-10-19T17:02:18.539Z,991.3
2022-10-19T17:04:19.493Z,991.2
2022-10-19T17:06:20.809Z,991.2
2022-10-19T17:08:30.510Z,991.2
2022-10-19T17:10:24.500Z,991.2
2022-10-19T17:12:25.717Z,991.1
2022-10-19T17:16:28.493Z,991.1
2022-10-19T17:18:30.214Z,991.2
2022-10-19T17:20:31.941Z,991
2022-10-19T17:22:33.129Z,991.1
2022-10-19T17:24:34.648Z,991.1
2022-10-19T17:26:35.789Z,991
2022-10-19T17:28:36.890Z,991.1
2022-10-19T17:30:38.213Z,991.1
2022-10-19T17:32:40.106Z,991
2022-10-19T17:34:41.879Z,991
2022-10-19T17:36:42.943Z,991.1
2022-10-19T17:38:43.915Z,991.2
2022-10-19T17:40:45.861Z,991.2
2022-10-19T17:42:47.544Z,991.2
2022-10-19T17:44:49.305Z,991.3
2022-10-19T17:46:50.672Z,991.3
2022-10-19T17:48:52.371Z,991.3
2022-10-19T17:50:53.378Z,991.3
2022-10-19T17:52:54.962Z,991.3
2022-10-19T17:53:38.835Z,991.3
2022-10-19T17:55:39.923Z,991.2
2022-10-19T17:59:52.328Z,991.2
2022-10-19T18:01:43.583Z,991.2
2022-10-19T18:03:45.181Z,991.2
2022-10-19T18:05:46.960Z,991.2
2022-10-19T18:07:48.842Z,991.2
2022-10-19T18:09:50.375Z,991.2
2022-10-19T18:11:51.449Z,991.2
2022-10-19T18:13:53.004Z,991.2
2022-10-19T18:15:54.172Z,991.3
2022-10-19T18:17:56.027Z,991.3
2022-10-19T18:19:57.942Z,991.2
2022-10-19T18:21:59.582Z,991.2
2022-10-19T18:24:01.111Z,991.1
2022-10-19T18:26:02.111Z,991.1
2022-10-19T18:28:03.291Z,991
2022-10-19T18:30:04.803Z,991.1
2022-10-19T18:34:08.139Z,991
2022-10-19T18:36:09.115Z,991
2022-10-19T18:38:10.317Z,991
2022-10-19T18:40:11.971Z,991
2022-10-19T18:42:13.691Z,991
2022-10-19T18:44:15.449Z,991
2022-10-19T18:46:16.938Z,991.1
2022-10-19T18:48:18.547Z,991
2022-10-19T18:50:19.914Z,991
2022-10-19T18:52:21.290Z,991
2022-10-19T18:54:23.038Z,991
2022-10-19T18:58:26.073Z,991
2022-10-19T19:00:27.275Z,991
2022-10-19T19:04:29.710Z,990.9
2022-10-19T19:06:30.988Z,990.9
2022-10-19T19:08:32.436Z,991
2022-10-19T19:10:33.827Z,991
2022-10-19T19:12:35.716Z,990.9
2022-10-19T19:14:37.449Z,990.9
2022-10-19T19:16:39.141Z,990.9
2022-10-19T19:18:40.951Z,990.9
2022-10-19T19:20:42.093Z,990.8
2022-10-19T19:22:43.344Z,990.8
2022-10-19T19:24:45.269Z,990.7
2022-10-19T19:26:46.501Z,990.7
2022-10-19T19:28:49.143Z,990.7
2022-10-19T19:30:49.551Z,990.6
2022-10-19T19:32:51.120Z,990.6
2022-10-19T19:34:54.679Z,990.6
2022-10-19T19:36:54.093Z,990.6
2022-10-19T19:38:55.752Z,990.6
2022-10-19T19:40:57.103Z,990.5
2022-10-19T19:42:58.604Z,990.5
2022-10-19T19:44:59.842Z,990.6
2022-10-19T19:47:01.504Z,990.5
2022-10-19T19:49:02.993Z,990.4
2022-10-19T19:51:04.717Z,990.4
2022-10-19T19:57:09.271Z,990.4
2022-10-19T19:59:10.715Z,990.5
2022-10-19T20:01:12.341Z,990.5
2022-10-19T20:03:13.416Z,990.5
2022-10-19T20:05:14.412Z,990.5
2022-10-19T20:07:15.861Z,990.5
2022-10-19T20:09:17.109Z,990.5
2022-10-19T20:11:18.489Z,990.5
2022-10-19T20:13:19.646Z,990.5
2022-10-19T20:15:21.306Z,990.5
2022-10-19T20:17:22.701Z,990.5
2022-10-19T20:19:24.618Z,990.6
2022-10-19T20:21:25.880Z,990.5
2022-10-19T20:23:26.828Z,990.6
2022-10-19T20:25:28.524Z,990.6
2022-10-19T20:27:30.217Z,990.6
2022-10-19T20:29:31.716Z,990.6
2022-10-19T20:31:33.429Z,990.7
2022-10-19T20:33:34.465Z,990.7
2022-10-19T20:35:35.761Z,990.8
2022-10-19T20:39:38.434Z,990.7
2022-10-19T20:41:40.019Z,990.6
2022-10-19T20:45:43.161Z,990.7
2022-10-19T20:47:44.750Z,990.6
2022-10-19T20:49:46.163Z,990.7
2022-10-19T20:51:47.305Z,990.7
2022-10-19T20:55:49.488Z,990.6
2022-10-19T20:57:50.425Z,990.6
2022-10-19T20:59:51.637Z,990.6
2022-10-19T21:01:53.046Z,990.6
2022-10-19T21:03:54.729Z,990.6
2022-10-19T21:05:56.410Z,990.6
2022-10-19T21:07:57.530Z,990.5
2022-10-19T21:09:58.694Z,990.5
2022-10-19T21:11:59.935Z,990.5
2022-10-19T21:14:00.903Z,990.5
2022-10-19T21:16:02.252Z,990.5
2022-10-19T21:18:03.791Z,990.4
2022-10-19T21:20:04.747Z,990.3
2022-10-19T21:22:06.489Z,990.3
2022-10-19T21:24:08.222Z,990.3
2022-10-19T21:26:09.906Z,990.3
2022-10-19T21:28:11.159Z,990.2
2022-10-19T21:30:12.351Z,990.2
2022-10-19T21:32:13.468Z,990.2
2022-10-19T21:34:15.226Z,990.2
2022-10-19T21:36:16.307Z,990.2
2022-10-19T21:38:17.345Z,990.2
2022-10-19T21:40:19.218Z,990.2
2022-10-19T21:42:20.414Z,990.2
2022-10-19T21:44:21.537Z,990.1
2022-10-19T21:46:23.117Z,990.2
2022-10-19T21:48:24.930Z,990.1
2022-10-19T21:50:26.866Z,990.1
2022-10-19T21:52:28.742Z,990.1
2022-10-19T21:54:30.221Z,990.3
2022-10-19T21:56:31.814Z,990.2
2022-10-19T21:58:33.680Z,990.1
2022-10-19T22:00:35.441Z,990.2
2022-10-19T22:02:36.571Z,990.2
2022-10-19T22:04:37.980Z,990.3
2022-10-19T22:06:38.926Z,990.2
2022-10-19T22:08:40.311Z,990.2
2022-10-19T22:10:42.078Z,990.2
2022-10-19T22:12:43.104Z,990.3
2022-10-19T22:14:44.250Z,990.2
2022-10-19T22:16:45.718Z,990.3
2022-10-19T22:18:46.733Z,990.3
2022-10-19T22:20:48.464Z,990.3
2022-10-19T22:22:50.374Z,990.2
2022-10-19T22:24:51.770Z,990.2
2022-10-19T22:26:53.199Z,990.2
2022-10-19T22:28:54.875Z,990.2
2022-10-19T22:30:56.749Z,990.2
2022-10-19T22:32:57.737Z,990.2
2022-10-19T22:34:58.905Z,990.2
2022-10-19T22:37:00.382Z,990.2
2022-10-19T22:39:02.045Z,990.1
2022-10-19T22:41:03.206Z,990.1
2022-10-19T22:43:06.202Z,990.1
2022-10-19T22:45:06.114Z,990
2022-10-19T22:47:07.882Z,990
2022-10-19T22:51:11.429Z,990
2022-10-19T22:53:12.552Z,989.9
2022-10-19T22:55:13.545Z,989.8
2022-10-19T22:57:14.745Z,989.9
2022-10-19T22:59:16.118Z,989.8
2022-10-19T23:01:17.277Z,989.9
2022-10-19T23:03:18.253Z,989.7
2022-10-19T23:05:19.459Z,989.8
2022-10-19T23:07:20.940Z,989.7
2022-10-19T23:09:22.466Z,989.8
2022-10-19T23:11:24.159Z,989.7
2022-10-19T23:13:25.531Z,989.7
2022-10-19T23:15:27.231Z,989.7
2022-10-19T23:19:30.000Z,989.6
2022-10-19T23:21:31.186Z,989.7
2022-10-19T23:23:32.563Z,989.7
2022-10-19T23:25:33.605Z,989.7
2022-10-19T23:27:35.106Z,989.7
2022-10-19T23:29:36.007Z,989.8
2022-10-19T23:31:37.133Z,989.7
2022-10-19T23:33:38.709Z,989.8
2022-10-19T23:35:40.154Z,989.7
2022-10-19T23:37:42.070Z,989.8
2022-10-19T23:39:43.125Z,989.9
2022-10-19T23:41:45.021Z,989.8
2022-10-19T23:43:46.359Z,989.7
2022-10-19T23:45:47.875Z,989.7
2022-10-19T23:47:48.951Z,989.7
2022-10-19T23:49:50.563Z,989.7
2022-10-19T23:51:52.138Z,989.7
2022-10-19T23:53:53.641Z,989.6
2022-10-19T23:55:55.019Z,989.6
2022-10-19T23:57:56.909Z,989.6
2022-10-19T23:59:58.637Z,989.6
